Time;durP1;ratioP1;P1;durP2;ratioP2;P2;SDS_P1;SDS_P2;PMS_P1;PMS_P2;Temp;Humidity;BMP_temperature;BMP_pressure;BME280_temperature;BME280_humidity;BME280_pressure;Samples;Min_cycle;Max_cycle;Signal;HPM_P1;HPM_P2
2022/04/07 00:02:02;;;;;;;17.58;8.15;;;;;;;;;;5076467;28;20063;-77
2022/04/07 00:04:27;;;;;;;17.08;8.68;;;;;;;;;;5076585;28;20477;-77
2022/04/07 00:06:53;;;;;;;15.82;8.35;;;;;;;;;;5076451;28;20468;-77
2022/04/07 00:09:18;;;;;;;17.80;7.93;;;;;;;;;;5076324;28;20028;-77
2022/04/07 00:11:44;;;;;;;16.40;7.90;;;;;;;;;;5076210;28;20028;-77
2022/04/07 00:14:09;;;;;;;19.00;8.18;;;;;;;;;;5075968;28;20020;-77
2022/04/07 00:16:35;;;;;;;16.77;8.10;;;;;;;;;;5076204;28;20037;-77
2022/04/07 00:19:00;;;;;;;14.32;7.80;;;;;;;;;;5058189;28;20060;-77
2022/04/07 00:21:35;;;;;;;21.92;8.25;;;;;;;;;;5076268;28;20392;-78
2022/04/07 00:24:01;;;;;;;18.08;8.23;;;;;;;;;;5075994;28;20025;-77
2022/04/07 00:26:26;;;;;;;16.27;8.02;;;;;;;;;;5076139;28;20086;-77
2022/04/07 00:28:53;;;;;;;17.65;7.97;;;;;;;;;;5076048;28;20106;-76
2022/04/07 00:31:18;;;;;;;15.65;7.65;;;;;;;;;;5075862;28;20035;-77
2022/04/07 00:33:44;;;;;;;18.23;7.45;;;;;;;;;;5057991;28;20033;-77
2022/04/07 00:36:09;;;;;;;22.27;7.88;;;;;;;;;;5075975;28;20029;-77
2022/04/07 00:38:35;;;;;;;22.02;8.10;;;;;;;;;;5075725;28;20029;-77
2022/04/07 00:41:00;;;;;;;19.40;7.75;;;;;;;;;;5075454;28;20056;-77
2022/04/07 00:43:29;;;;;;;20.25;7.90;;;;;;;;;;5075285;28;20101;-77
2022/04/07 00:45:55;;;;;;;17.80;7.35;;;;;;;;;;5075834;28;20368;-77
2022/04/07 00:48:20;;;;;;;12.85;7.15;;;;;;;;;;5075509;28;20032;-77
2022/04/07 00:50:46;;;;;;;15.60;7.68;;;;;;;;;;5075503;28;20483;-76
2022/04/07 00:53:12;;;;;;;19.10;7.75;;;;;;;;;;5057653;28;20033;-77
2022/04/07 00:55:37;;;;;;;20.35;7.72;;;;;;;;;;5057505;28;20024;-77
2022/04/07 00:58:03;;;;;;;19.23;8.50;;;;;;;;;;5075022;28;20159;-77
2022/04/07 01:00:30;;;;;;;15.52;8.63;;;;;;;;;;5040769;28;20039;-76
2022/04/07 01:02:55;;;;;;;23.52;9.55;;;;;;;;;;5075264;28;20021;-76
2022/04/07 01:05:23;;;;;;;17.75;8.73;;;;;;;;;;5075075;28;20031;-77
2022/04/07 01:07:49;;;;;;;20.33;8.85;;;;;;;;;;5075541;28;20155;-77
2022/04/07 01:10:16;;;;;;;22.90;9.15;;;;;;;;;;5057236;28;20100;-76
2022/04/07 01:12:41;;;;;;;19.65;9.80;;;;;;;;;;5057397;28;20028;-77
2022/04/07 01:15:07;;;;;;;21.30;9.57;;;;;;;;;;5074942;28;20062;-77
2022/04/07 01:17:34;;;;;;;16.13;9.25;;;;;;;;;;5074959;28;20028;-78
2022/04/07 01:20:01;;;;;;;20.52;9.05;;;;;;;;;;5075272;28;20021;-77
2022/04/07 01:22:26;;;;;;;16.33;8.10;;;;;;;;;;5057283;28;20355;-76
2022/04/07 01:24:52;;;;;;;19.10;8.45;;;;;;;;;;5057103;28;20035;-77
2022/04/07 01:27:18;;;;;;;19.05;8.65;;;;;;;;;;5074424;28;20063;-77
2022/04/07 01:29:43;;;;;;;17.10;8.55;;;;;;;;;;5074693;28;20028;-76
2022/04/07 01:32:18;;;;;;;17.30;8.43;;;;;;;;;;5074704;28;20024;-77
2022/04/07 01:34:44;;;;;;;19.65;8.15;;;;;;;;;;5056834;28;20024;-77
2022/04/07 01:37:09;;;;;;;19.00;8.43;;;;;;;;;;5074877;28;20128;-77
2022/04/07 01:39:35;;;;;;;17.40;7.97;;;;;;;;;;5056789;28;20102;-77
2022/04/07 01:42:01;;;;;;;19.50;8.55;;;;;;;;;;5056383;28;20051;-78
2022/04/07 01:44:26;;;;;;;14.35;7.40;;;;;;;;;;5040392;28;20113;-77
2022/04/07 01:46:52;;;;;;;15.57;7.60;;;;;;;;;;5074457;28;20051;-77
2022/04/07 01:49:18;;;;;;;14.93;7.32;;;;;;;;;;5056591;28;20024;-76
2022/04/07 01:51:44;;;;;;;22.50;7.00;;;;;;;;;;5056900;28;20028;-77
2022/04/07 01:54:11;;;;;;;19.42;7.80;;;;;;;;;;5056571;28;20039;-77
2022/04/07 01:56:39;;;;;;;15.77;7.93;;;;;;;;;;5040599;28;20050;-77
2022/04/07 01:59:05;;;;;;;14.60;7.63;;;;;;;;;;5057286;28;20032;-77
2022/04/07 02:01:30;;;;;;;12.65;7.28;;;;;;;;;;5040011;28;20055;-78
2022/04/07 02:03:56;;;;;;;14.80;7.45;;;;;;;;;;5056635;28;20426;-77
2022/04/07 02:06:24;;;;;;;14.20;6.90;;;;;;;;;;5074127;28;20055;-77
2022/04/07 02:08:50;;;;;;;17.48;7.80;;;;;;;;;;5074441;28;20449;-77
2022/04/07 02:11:15;;;;;;;20.45;8.20;;;;;;;;;;5056143;28;20122;-77
2022/04/07 02:13:41;;;;;;;13.93;7.03;;;;;;;;;;5074663;28;20024;-76
2022/04/07 02:16:07;;;;;;;16.50;7.75;;;;;;;;;;5073525;28;20095;-77
2022/04/07 02:18:33;;;;;;;12.27;7.28;;;;;;;;;;5056645;28;20032;-77
2022/04/07 02:20:58;;;;;;;14.18;7.63;;;;;;;;;;5056260;28;20043;-77
2022/04/07 02:23:24;;;;;;;15.65;7.40;;;;;;;;;;5074185;28;20365;-78
2022/04/07 02:25:49;;;;;;;17.35;7.80;;;;;;;;;;5074066;28;20033;-77
2022/04/07 02:28:15;;;;;;;15.07;7.57;;;;;;;;;;5073813;28;20052;-77
2022/04/07 02:30:40;;;;;;;14.73;7.63;;;;;;;;;;5074200;28;20086;-77
2022/04/07 02:33:06;;;;;;;16.40;8.10;;;;;;;;;;5073973;28;20517;-78
2022/04/07 02:35:31;;;;;;;13.88;7.38;;;;;;;;;;5055913;28;20036;-77
2022/04/07 02:38:00;;;;;;;13.10;7.20;;;;;;;;;;5074187;28;20442;-77
2022/04/07 02:40:25;;;;;;;16.52;7.03;;;;;;;;;;5055672;28;20020;-77
2022/04/07 02:42:51;;;;;;;18.25;7.70;;;;;;;;;;5073964;28;20123;-75
2022/04/07 02:45:16;;;;;;;16.55;7.95;;;;;;;;;;5073775;28;20032;-77
2022/04/07 02:47:42;;;;;;;11.80;7.05;;;;;;;;;;5055697;28;20032;-77
2022/04/07 02:50:07;;;;;;;17.42;7.38;;;;;;;;;;5073750;28;20024;-78
2022/04/07 02:52:33;;;;;;;13.60;7.30;;;;;;;;;;5073710;28;20061;-77
2022/04/07 02:54:58;;;;;;;11.57;7.00;;;;;;;;;;5055691;28;20465;-77
2022/04/07 02:57:24;;;;;;;14.20;7.25;;;;;;;;;;5073709;28;20020;-77
2022/04/07 02:59:50;;;;;;;14.35;7.18;;;;;;;;;;5055685;28;20036;-78
2022/04/07 03:02:15;;;;;;;22.67;8.10;;;;;;;;;;5073853;28;20024;-77
2022/04/07 03:04:41;;;;;;;11.48;7.65;;;;;;;;;;5073628;28;20509;-77
2022/04/07 03:07:06;;;;;;;18.45;7.70;;;;;;;;;;5073803;28;20036;-77
2022/04/07 03:09:32;;;;;;;20.30;8.07;;;;;;;;;;5073315;28;20028;-77
2022/04/07 03:11:57;;;;;;;15.52;7.78;;;;;;;;;;5073575;28;20064;-77
2022/04/07 03:14:26;;;;;;;33.15;10.52;;;;;;;;;;5055905;28;20036;-77
2022/04/07 03:16:52;;;;;;;26.75;11.30;;;;;;;;;;5073791;28;20028;-77
2022/04/07 03:19:18;;;;;;;23.92;9.27;;;;;;;;;;5073436;28;20373;-77
2022/04/07 03:21:43;;;;;;;17.33;8.25;;;;;;;;;;5073236;28;20028;-77
2022/04/07 03:24:10;;;;;;;18.27;8.15;;;;;;;;;;5074073;28;20031;-77
2022/04/07 03:26:35;;;;;;;16.38;7.78;;;;;;;;;;5073829;28;20442;-77
2022/04/07 03:29:01;;;;;;;13.98;7.93;;;;;;;;;;5059335;28;20089;-77
2022/04/07 03:31:26;;;;;;;17.08;8.68;;;;;;;;;;5077299;28;20040;-77
2022/04/07 03:33:52;;;;;;;21.02;9.00;;;;;;;;;;5076934;28;20111;-77
2022/04/07 03:36:17;;;;;;;17.23;9.57;;;;;;;;;;5077028;28;20040;-77
2022/04/07 03:38:43;;;;;;;21.52;9.57;;;;;;;;;;5076843;28;20432;-77
2022/04/07 03:41:08;;;;;;;17.35;8.48;;;;;;;;;;5077139;28;20127;-78
2022/04/07 03:43:34;;;;;;;25.13;10.30;;;;;;;;;;5059071;28;20105;-78
2022/04/07 03:45:59;;;;;;;18.48;11.15;;;;;;;;;;5077050;28;20054;-77
2022/04/07 03:48:25;;;;;;;22.25;9.35;;;;;;;;;;5076649;28;20081;-77
2022/04/07 03:50:50;;;;;;;19.20;9.88;;;;;;;;;;5076466;28;20063;-77
2022/04/07 03:53:16;;;;;;;15.82;9.02;;;;;;;;;;5042105;28;20036;-77
2022/04/07 03:55:41;;;;;;;22.50;9.32;;;;;;;;;;5076576;28;20035;-77
2022/04/07 03:58:07;;;;;;;19.20;10.20;;;;;;;;;;5077085;28;20036;-78
2022/04/07 04:00:32;;;;;;;14.15;8.75;;;;;;;;;;5076508;28;20538;-77
2022/04/07 04:02:58;;;;;;;18.00;9.50;;;;;;;;;;5076380;28;20025;-77
2022/04/07 04:05:24;;;;;;;20.90;10.80;;;;;;;;;;5076164;28;20063;-77
2022/04/07 04:07:49;;;;;;;22.80;10.95;;;;;;;;;;5076925;28;20044;-77
2022/04/07 04:10:14;;;;;;;21.30;9.52;;;;;;;;;;5076281;28;20032;-77
2022/04/07 04:12:40;;;;;;;21.48;9.93;;;;;;;;;;5076162;28;20032;-77
2022/04/07 04:15:06;;;;;;;22.05;10.98;;;;;;;;;;5076226;28;20530;-78
2022/04/07 04:17:31;;;;;;;26.92;11.32;;;;;;;;;;5076328;28;20039;-77
2022/04/07 04:19:57;;;;;;;22.58;11.13;;;;;;;;;;5075916;28;20098;-77
2022/04/07 04:22:22;;;;;;;25.95;11.95;;;;;;;;;;5076363;28;20028;-77
2022/04/07 04:24:48;;;;;;;28.60;13.35;;;;;;;;;;5058390;28;20377;-77
2022/04/07 04:27:14;;;;;;;28.58;13.02;;;;;;;;;;5058139;28;20528;-77
2022/04/07 04:29:40;;;;;;;28.20;13.18;;;;;;;;;;5076194;28;20020;-77
2022/04/07 04:32:06;;;;;;;26.77;14.38;;;;;;;;;;5058020;28;20115;-76
2022/04/07 04:34:31;;;;;;;25.67;13.95;;;;;;;;;;5057935;28;20060;-77
2022/04/07 04:36:57;;;;;;;27.05;13.07;;;;;;;;;;5075802;28;20100;-77
2022/04/07 04:39:24;;;;;;;39.90;16.98;;;;;;;;;;5040823;28;20413;-77
2022/04/07 04:41:49;;;;;;;35.58;17.85;;;;;;;;;;5075734;28;20048;-77
2022/04/07 04:44:15;;;;;;;29.05;15.48;;;;;;;;;;5057851;28;20028;-77
2022/04/07 04:46:40;;;;;;;26.58;14.57;;;;;;;;;;5075551;28;20036;-77
2022/04/07 04:49:06;;;;;;;31.77;14.90;;;;;;;;;;5075251;28;20028;-76
2022/04/07 04:51:31;;;;;;;30.08;14.35;;;;;;;;;;5075737;28;20042;-77
2022/04/07 04:53:57;;;;;;;28.15;12.82;;;;;;;;;;5075463;28;20078;-77
2022/04/07 04:56:22;;;;;;;30.83;13.55;;;;;;;;;;5075433;28;20028;-77
2022/04/07 04:58:48;;;;;;;40.45;15.63;;;;;;;;;;5075575;28;20028;-77
2022/04/07 05:01:13;;;;;;;27.60;14.57;;;;;;;;;;5075322;28;20032;-77
2022/04/07 05:03:39;;;;;;;28.60;14.70;;;;;;;;;;5074964;28;20056;-77
2022/04/07 05:06:04;;;;;;;28.60;13.77;;;;;;;;;;5075229;28;20039;-78
2022/04/07 05:08:30;;;;;;;31.65;13.88;;;;;;;;;;5075066;28;20442;-77
2022/04/07 05:10:55;;;;;;;32.45;16.80;;;;;;;;;;5074985;28;20072;-77
2022/04/07 05:13:22;;;;;;;35.63;17.23;;;;;;;;;;5075183;28;20056;-77
2022/04/07 05:15:48;;;;;;;40.08;15.57;;;;;;;;;;5075018;28;20035;-77
2022/04/07 05:18:13;;;;;;;31.48;15.55;;;;;;;;;;5056854;28;20131;-77
2022/04/07 05:20:39;;;;;;;22.30;12.18;;;;;;;;;;5074959;28;20028;-77
2022/04/07 05:23:04;;;;;;;24.27;11.07;;;;;;;;;;5074834;28;20029;-77
2022/04/07 05:25:30;;;;;;;24.35;11.00;;;;;;;;;;5074898;28;20021;-76
2022/04/07 05:27:55;;;;;;;17.77;10.43;;;;;;;;;;5056981;28;20081;-77
2022/04/07 05:30:21;;;;;;;20.48;11.02;;;;;;;;;;5074783;28;20029;-77
2022/04/07 05:32:46;;;;;;;19.63;11.32;;;;;;;;;;5074415;28;20047;-77
2022/04/07 05:35:12;;;;;;;14.02;8.65;;;;;;;;;;5074533;28;20028;-77
2022/04/07 05:37:38;;;;;;;23.67;10.77;;;;;;;;;;5056846;28;20162;-77
2022/04/07 05:40:04;;;;;;;15.77;9.50;;;;;;;;;;5056720;28;20480;-76
2022/04/07 05:42:29;;;;;;;17.35;10.15;;;;;;;;;;5074315;28;20047;-77
2022/04/07 05:44:55;;;;;;;18.98;10.75;;;;;;;;;;5074795;28;20354;-77
2022/04/07 05:47:20;;;;;;;25.10;11.48;;;;;;;;;;5074371;28;20040;-76
2022/04/07 05:49:46;;;;;;;18.40;11.48;;;;;;;;;;5074547;28;20035;-76
2022/04/07 05:52:11;;;;;;;19.33;11.55;;;;;;;;;;5073694;28;20555;-76
2022/04/07 05:54:37;;;;;;;23.20;12.70;;;;;;;;;;5074250;28;20020;-77
2022/04/07 05:57:02;;;;;;;24.63;12.82;;;;;;;;;;5056434;28;20020;-76
2022/04/07 05:59:28;;;;;;;25.67;14.07;;;;;;;;;;5074565;28;20025;-77
2022/04/07 06:01:53;;;;;;;29.90;15.25;;;;;;;;;;5056011;28;20078;-77
2022/04/07 06:04:19;;;;;;;30.92;14.50;;;;;;;;;;5056579;28;20040;-77
2022/04/07 06:06:44;;;;;;;24.45;13.55;;;;;;;;;;5074173;28;20036;-77
2022/04/07 06:09:10;;;;;;;28.52;13.30;;;;;;;;;;5056192;28;20028;-77
2022/04/07 06:11:35;;;;;;;25.02;12.95;;;;;;;;;;5056177;28;20066;-80
2022/04/07 06:14:01;;;;;;;18.77;11.20;;;;;;;;;;5074050;28;20028;-76
2022/04/07 06:16:27;;;;;;;20.48;10.85;;;;;;;;;;5073731;28;20067;-76
2022/04/07 06:18:52;;;;;;;38.78;19.42;;;;;;;;;;5074104;28;20029;-76
2022/04/07 06:21:19;;;;;;;32.10;17.15;;;;;;;;;;5074209;28;20033;-76
2022/04/07 06:23:45;;;;;;;34.38;17.80;;;;;;;;;;5056461;28;20385;-76
2022/04/07 06:26:11;;;;;;;21.98;12.27;;;;;;;;;;5073916;28;20032;-76
2022/04/07 06:28:36;;;;;;;20.17;11.10;;;;;;;;;;5074044;28;20045;-77
2022/04/07 06:31:02;;;;;;;23.08;11.30;;;;;;;;;;5055983;28;20029;-77
2022/04/07 06:33:27;;;;;;;22.48;11.95;;;;;;;;;;5073911;28;20043;-75
2022/04/07 06:35:53;;;;;;;23.42;12.50;;;;;;;;;;5074148;28;20477;-75
2022/04/07 06:38:18;;;;;;;22.10;13.13;;;;;;;;;;5074340;28;20119;-75
2022/04/07 06:40:44;;;;;;;28.52;14.88;;;;;;;;;;5074136;28;20373;-76
2022/04/07 06:43:10;;;;;;;27.38;16.10;;;;;;;;;;5074044;28;20544;-75
2022/04/07 06:45:35;;;;;;;28.08;16.75;;;;;;;;;;5055510;28;20111;-75
2022/04/07 06:48:01;;;;;;;28.20;15.02;;;;;;;;;;5073567;28;20036;-77
2022/04/07 06:50:26;;;;;;;32.38;17.30;;;;;;;;;;5056789;28;20067;-77
2022/04/07 06:52:52;;;;;;;28.75;16.00;;;;;;;;;;5074081;28;20363;-76
2022/04/07 06:55:18;;;;;;;34.38;18.42;;;;;;;;;;5056073;28;20043;-77
2022/04/07 06:57:52;;;;;;;37.95;18.73;;;;;;;;;;5073397;28;20032;-77
2022/04/07 07:00:18;;;;;;;32.58;16.92;;;;;;;;;;5055906;28;20033;-77
2022/04/07 07:02:51;;;;;;;31.65;18.10;;;;;;;;;;5057704;28;20371;-77
2022/04/07 07:05:17;;;;;;;32.80;16.17;;;;;;;;;;5077253;28;20028;-77
2022/04/07 07:07:43;;;;;;;29.15;16.75;;;;;;;;;;5059809;28;20040;-78
2022/04/07 07:10:08;;;;;;;31.67;16.27;;;;;;;;;;5077389;28;20028;-78
2022/04/07 07:12:34;;;;;;;27.33;15.55;;;;;;;;;;5077304;28;20036;-77
2022/04/07 07:15:00;;;;;;;45.40;24.02;;;;;;;;;;5059187;28;20480;-78
2022/04/07 07:17:33;;;;;;;35.63;16.98;;;;;;;;;;5077064;28;20381;-76
2022/04/07 07:20:05;;;;;;;35.63;20.45;;;;;;;;;;5060415;28;20033;-77
2022/04/07 07:22:31;;;;;;;30.38;17.23;;;;;;;;;;5077358;28;20142;-77
2022/04/07 07:24:57;;;;;;;43.35;17.90;;;;;;;;;;5076984;28;20107;-77
2022/04/07 07:27:23;;;;;;;36.55;18.40;;;;;;;;;;5076961;28;20457;-77
2022/04/07 07:29:48;;;;;;;37.10;18.23;;;;;;;;;;5076725;28;20119;-78
2022/04/07 07:32:14;;;;;;;36.63;19.58;;;;;;;;;;5077801;28;20262;-77
2022/04/07 07:34:39;;;;;;;32.28;17.77;;;;;;;;;;5059017;28;20031;-77
2022/04/07 07:37:05;;;;;;;41.72;17.17;;;;;;;;;;5076911;28;20370;-77
2022/04/07 07:39:30;;;;;;;34.65;15.63;;;;;;;;;;5077039;28;20062;-77
2022/04/07 07:41:56;;;;;;;23.50;14.10;;;;;;;;;;5076708;28;20040;-77
2022/04/07 07:44:21;;;;;;;22.75;12.55;;;;;;;;;;5076759;28;20024;-77
2022/04/07 07:46:47;;;;;;;27.88;13.27;;;;;;;;;;5076582;28;20032;-77
2022/04/07 07:49:13;;;;;;;27.05;13.73;;;;;;;;;;5076640;28;20037;-78
2022/04/07 07:51:38;;;;;;;24.83;13.30;;;;;;;;;;5077046;28;20036;-77
2022/04/07 07:54:04;;;;;;;25.17;13.65;;;;;;;;;;5077075;28;20033;-78
2022/04/07 07:56:30;;;;;;;26.67;12.73;;;;;;;;;;5076529;28;20047;-78
2022/04/07 07:58:55;;;;;;;21.88;13.15;;;;;;;;;;5076219;28;20025;-78
2022/04/07 08:01:21;;;;;;;25.92;12.02;;;;;;;;;;5076386;28;20393;-77
2022/04/07 08:03:46;;;;;;;28.23;14.65;;;;;;;;;;5042075;28;20103;-75
2022/04/07 08:06:12;;;;;;;30.42;15.57;;;;;;;;;;5076326;28;20445;-75
2022/04/07 08:08:37;;;;;;;22.90;12.63;;;;;;;;;;5076168;28;20119;-77
2022/04/07 08:11:03;;;;;;;24.05;12.65;;;;;;;;;;5078129;28;20029;-77
2022/04/07 08:13:28;;;;;;;22.90;13.70;;;;;;;;;;5074984;28;20060;-77
2022/04/07 08:15:54;;;;;;;23.25;13.32;;;;;;;;;;5058484;28;20090;-77
2022/04/07 08:18:19;;;;;;;22.92;12.77;;;;;;;;;;5076132;28;20032;-77
2022/04/07 08:20:44;;;;;;;26.08;15.13;;;;;;;;;;5076069;28;20425;-80
2022/04/07 08:23:10;;;;;;;25.27;13.82;;;;;;;;;;5058228;28;20082;-80
2022/04/07 08:25:35;;;;;;;37.67;19.70;;;;;;;;;;5075865;28;20453;-80
2022/04/07 08:28:02;;;;;;;24.60;13.30;;;;;;;;;;5057706;28;20025;-79
2022/04/07 08:30:27;;;;;;;27.20;15.25;;;;;;;;;;5075832;28;20115;-82
2022/04/07 08:32:53;;;;;;;22.90;13.35;;;;;;;;;;5076429;28;20120;-80
2022/04/07 08:35:19;;;;;;;23.65;14.30;;;;;;;;;;5075745;28;20031;-80
2022/04/07 08:37:44;;;;;;;28.17;14.88;;;;;;;;;;5075719;28;20142;-77
2022/04/07 08:40:10;;;;;;;24.08;14.27;;;;;;;;;;5075882;28;20058;-77
2022/04/07 08:42:36;;;;;;;29.35;15.20;;;;;;;;;;5057862;28;20052;-77
2022/04/07 08:45:01;;;;;;;25.88;15.00;;;;;;;;;;5074856;28;20458;-79
2022/04/07 08:47:27;;;;;;;23.25;14.13;;;;;;;;;;5075383;28;20033;-79
2022/04/07 08:49:52;;;;;;;35.30;19.13;;;;;;;;;;5041065;28;20153;-79
2022/04/07 08:52:18;;;;;;;27.50;14.88;;;;;;;;;;5057833;28;20350;-80
2022/04/07 08:54:44;;;;;;;25.85;15.65;;;;;;;;;;5075332;28;20051;-78
2022/04/07 08:57:10;;;;;;;27.73;13.95;;;;;;;;;;5075022;28;20028;-76
2022/04/07 08:59:35;;;;;;;24.85;14.18;;;;;;;;;;5075349;28;20035;-77
2022/04/07 09:02:02;;;;;;;20.88;13.50;;;;;;;;;;5075248;28;20032;-77
2022/04/07 09:04:30;;;;;;;26.45;15.20;;;;;;;;;;5057450;28;20039;-76
2022/04/07 09:06:56;;;;;;;29.15;16.30;;;;;;;;;;5075066;28;20032;-78
2022/04/07 09:09:22;;;;;;;34.80;18.67;;;;;;;;;;5057199;28;20491;-77
2022/04/07 09:11:57;;;;;;;32.67;17.88;;;;;;;;;;5057190;28;20024;-78
2022/04/07 09:14:23;;;;;;;27.63;17.33;;;;;;;;;;5075848;28;20025;-77
2022/04/07 09:16:53;;;;;;;41.95;20.85;;;;;;;;;;5057016;28;20115;-77
2022/04/07 09:19:20;;;;;;;32.67;17.00;;;;;;;;;;5074742;28;20032;-77
2022/04/07 09:21:45;;;;;;;27.27;15.98;;;;;;;;;;5074822;28;20024;-78
2022/04/07 09:24:11;;;;;;;30.33;16.40;;;;;;;;;;5074815;28;20031;-77
2022/04/07 09:26:39;;;;;;;38.28;21.17;;;;;;;;;;5074474;28;20028;-77
2022/04/07 09:29:10;;;;;;;42.08;22.02;;;;;;;;;;5075131;28;20162;-77
2022/04/07 09:31:37;;;;;;;33.45;19.70;;;;;;;;;;5057351;28;20035;-77
2022/04/07 09:34:03;;;;;;;41.00;22.70;;;;;;;;;;5074631;28;20028;-77
2022/04/07 09:36:29;;;;;;;59.33;29.90;;;;;;;;;;5074532;28;20035;-77
2022/04/07 09:38:55;;;;;;;39.90;19.75;;;;;;;;;;5074305;28;20028;-78
2022/04/07 09:41:21;;;;;;;37.67;20.45;;;;;;;;;;5056663;28;20051;-79
2022/04/07 09:43:58;;;;;;;37.67;19.35;;;;;;;;;;5040134;28;20025;-78
2022/04/07 09:46:23;;;;;;;39.00;21.85;;;;;;;;;;5040444;28;20031;-77
2022/04/07 09:49:10;;;;;;;34.05;20.40;;;;;;;;;;5056571;28;20032;-78
2022/04/07 09:51:46;;;;;;;36.75;19.88;;;;;;;;;;5074306;28;20071;-78
2022/04/07 09:54:16;;;;;;;32.63;18.08;;;;;;;;;;5074408;28;20028;-78
2022/04/07 09:56:48;;;;;;;37.28;21.25;;;;;;;;;;5057523;28;20033;-77
2022/04/07 09:59:18;;;;;;;29.42;18.60;;;;;;;;;;5056459;28;20074;-78
2022/04/07 10:01:43;;;;;;;32.50;16.98;;;;;;;;;;5074169;28;20032;-78
2022/04/07 10:04:09;;;;;;;27.65;16.00;;;;;;;;;;5074465;28;20032;-78
2022/04/07 10:06:35;;;;;;;26.58;15.40;;;;;;;;;;5055716;28;20384;-77
2022/04/07 10:09:02;;;;;;;41.92;22.50;;;;;;;;;;5056080;28;20364;-77
2022/04/07 10:11:31;;;;;;;38.63;23.17;;;;;;;;;;5040024;28;20079;-78
2022/04/07 10:13:57;;;;;;;26.38;15.98;;;;;;;;;;5074886;28;20032;-78
2022/04/07 10:16:22;;;;;;;24.98;16.10;;;;;;;;;;5074284;28;20426;-78
2022/04/07 10:19:12;;;;;;;29.00;15.57;;;;;;;;;;5073908;28;20076;-78
2022/04/07 10:21:41;;;;;;;25.27;15.90;;;;;;;;;;5017925;28;20114;-78
2022/04/07 10:24:33;;;;;;;30.83;14.55;;;;;;;;;;5073382;28;20027;-78
2022/04/07 10:27:00;;;;;;;18.90;12.15;;;;;;;;;;5057421;28;20033;-77
2022/04/07 10:29:26;;;;;;;20.02;12.07;;;;;;;;;;5023158;28;20417;-78
2022/04/07 10:32:19;;;;;;;17.48;11.55;;;;;;;;;;5056496;28;20060;-78
2022/04/07 10:34:55;;;;;;;18.98;11.73;;;;;;;;;;5056271;28;20029;-77
2022/04/07 10:37:40;;;;;;;21.92;11.48;;;;;;;;;;5057933;28;20047;-77
2022/04/07 10:40:45;;;;;;;30.85;17.13;;;;;;;;;;5078026;28;20040;-78
2022/04/07 10:43:17;;;;;;;28.42;15.80;;;;;;;;;;5078124;28;20040;-78
2022/04/07 10:46:08;;;;;;;34.00;20.70;;;;;;;;;;5060394;28;20405;-78
2022/04/07 10:48:37;;;;;;;23.65;11.70;;;;;;;;;;5060888;28;20044;-78
2022/04/07 10:51:02;;;;;;;32.25;16.70;;;;;;;;;;5059904;28;20032;-79
2022/04/07 10:53:41;;;;;;;17.83;11.70;;;;;;;;;;5077606;28;20452;-78
2022/04/07 10:56:31;;;;;;;17.63;10.52;;;;;;;;;;5061956;28;20032;-77
2022/04/07 10:58:57;;;;;;;20.63;10.60;;;;;;;;;;5044353;28;20039;-77
2022/04/07 11:01:29;;;;;;;18.60;11.30;;;;;;;;;;5043323;28;20103;-78
2022/04/07 11:04:23;;;;;;;18.27;11.20;;;;;;;;;;5077517;28;20094;-78
2022/04/07 11:07:07;;;;;;;16.98;10.13;;;;;;;;;;5077100;28;20028;-77
2022/04/07 11:09:58;;;;;;;18.02;10.98;;;;;;;;;;5077723;28;20035;-77
2022/04/07 11:12:59;;;;;;;17.42;12.20;;;;;;;;;;5077734;28;20087;-77
2022/04/07 11:15:33;;;;;;;19.42;12.30;;;;;;;;;;5060087;28;20365;-77
2022/04/07 11:18:05;;;;;;;18.60;12.27;;;;;;;;;;5043288;28;20044;-77
2022/04/07 11:20:30;;;;;;;19.02;12.45;;;;;;;;;;5059289;28;20290;-77
2022/04/07 11:23:04;;;;;;;27.30;15.23;;;;;;;;;;5059437;28;20024;-77
2022/04/07 11:25:31;;;;;;;34.83;19.73;;;;;;;;;;5078064;28;20032;-78
2022/04/07 11:28:17;;;;;;;29.20;17.95;;;;;;;;;;5077798;28;20416;-77
2022/04/07 11:30:49;;;;;;;23.27;13.13;;;;;;;;;;5077716;28;20023;-78
2022/04/07 11:33:27;;;;;;;20.58;13.40;;;;;;;;;;5077434;28;20425;-77
2022/04/07 11:35:58;;;;;;;22.52;13.77;;;;;;;;;;5076926;28;20471;-77
2022/04/07 11:38:27;;;;;;;21.23;12.77;;;;;;;;;;5077170;28;20496;-78
2022/04/07 11:41:10;;;;;;;21.05;12.88;;;;;;;;;;5076704;28;20068;-78
2022/04/07 11:43:37;;;;;;;23.70;12.45;;;;;;;;;;5059399;28;20032;-77
2022/04/07 11:46:04;;;;;;;18.38;12.85;;;;;;;;;;5059181;28;20090;-77
2022/04/07 11:48:37;;;;;;;20.40;12.95;;;;;;;;;;5057400;28;20037;-77
2022/04/07 11:51:14;;;;;;;22.73;13.57;;;;;;;;;;5076681;28;20020;-77
2022/04/07 11:53:52;;;;;;;20.52;12.80;;;;;;;;;;5076515;28;20032;-77
2022/04/07 11:56:22;;;;;;;21.63;12.93;;;;;;;;;;5059191;28;20033;-77
2022/04/07 11:58:57;;;;;;;19.63;12.52;;;;;;;;;;5076679;28;20118;-77
2022/04/07 12:01:23;;;;;;;21.83;12.95;;;;;;;;;;5076406;28;20447;-78
2022/04/07 12:04:02;;;;;;;28.02;14.85;;;;;;;;;;5076482;28;20032;-78
2022/04/07 12:06:30;;;;;;;22.30;13.73;;;;;;;;;;5076801;28;20051;-78
2022/04/07 12:08:55;;;;;;;21.33;13.07;;;;;;;;;;5076371;28;20055;-78
2022/04/07 12:11:21;;;;;;;21.33;12.60;;;;;;;;;;5058481;28;20425;-78
2022/04/07 12:13:51;;;;;;;25.55;13.60;;;;;;;;;;5076203;28;20024;-78
2022/04/07 12:16:17;;;;;;;23.30;13.50;;;;;;;;;;5058572;28;20056;-78
2022/04/07 12:18:53;;;;;;;20.55;12.55;;;;;;;;;;5058351;28;20052;-78
2022/04/07 12:21:19;;;;;;;22.35;12.90;;;;;;;;;;5042413;28;20062;-78
2022/04/07 12:23:47;;;;;;;22.58;12.20;;;;;;;;;;5076074;28;20465;-78
2022/04/07 12:26:13;;;;;;;19.27;12.60;;;;;;;;;;5025544;28;20091;-78
2022/04/07 12:28:39;;;;;;;20.65;12.63;;;;;;;;;;5075932;28;20107;-78
2022/04/07 12:31:10;;;;;;;26.48;13.70;;;;;;;;;;5058178;28;20033;-78
2022/04/07 12:33:45;;;;;;;20.25;11.73;;;;;;;;;;5075792;28;20028;-78
2022/04/07 12:36:12;;;;;;;25.08;12.27;;;;;;;;;;5058101;28;20415;-78
2022/04/07 12:38:38;;;;;;;19.40;12.65;;;;;;;;;;5042330;28;20032;-77
2022/04/07 12:41:15;;;;;;;20.92;12.18;;;;;;;;;;5057602;28;20044;-78
2022/04/07 12:43:50;;;;;;;19.20;12.18;;;;;;;;;;5075630;28;20031;-78
2022/04/07 12:46:15;;;;;;;19.23;13.13;;;;;;;;;;5075594;28;20365;-78
2022/04/07 12:49:03;;;;;;;20.92;12.45;;;;;;;;;;5075222;28;20030;-77
2022/04/07 12:51:29;;;;;;;21.42;12.80;;;;;;;;;;5075556;28;20589;-78
2022/04/07 12:54:12;;;;;;;21.08;12.05;;;;;;;;;;5075439;28;20438;-78
2022/04/07 12:56:37;;;;;;;20.92;13.00;;;;;;;;;;5057652;28;20024;-78
2022/04/07 12:59:14;;;;;;;20.08;11.88;;;;;;;;;;5075487;28;20036;-78
2022/04/07 13:01:40;;;;;;;20.52;12.95;;;;;;;;;;5075034;28;20020;-79
2022/04/07 13:04:08;;;;;;;17.33;12.65;;;;;;;;;;5075040;28;20081;-78
2022/04/07 13:06:34;;;;;;;23.63;13.43;;;;;;;;;;5075101;28;20026;-78
2022/04/07 13:09:00;;;;;;;20.75;13.05;;;;;;;;;;5075192;28;20024;-78
2022/04/07 13:11:32;;;;;;;22.38;12.38;;;;;;;;;;5075372;28;20027;-78
2022/04/07 13:13:59;;;;;;;23.85;12.45;;;;;;;;;;5075210;28;20032;-78
2022/04/07 13:16:24;;;;;;;22.65;12.45;;;;;;;;;;5074788;28;20028;-78
2022/04/07 13:18:50;;;;;;;22.23;13.35;;;;;;;;;;5074916;28;20423;-77
2022/04/07 13:21:16;;;;;;;26.08;13.10;;;;;;;;;;5075355;28;20059;-77
2022/04/07 13:23:42;;;;;;;19.73;12.07;;;;;;;;;;5040746;28;20029;-78
2022/04/07 13:26:07;;;;;;;26.27;12.90;;;;;;;;;;5074822;28;20033;-78
2022/04/07 13:28:33;;;;;;;18.75;11.93;;;;;;;;;;5074769;28;20481;-77
2022/04/07 13:30:58;;;;;;;20.90;12.73;;;;;;;;;;5074537;28;20036;-78
2022/04/07 13:33:24;;;;;;;18.65;13.10;;;;;;;;;;5074652;28;20460;-77
2022/04/07 13:35:51;;;;;;;24.63;13.20;;;;;;;;;;5074612;28;20033;-77
2022/04/07 13:38:17;;;;;;;18.92;12.88;;;;;;;;;;5075085;28;20043;-78
2022/04/07 13:40:42;;;;;;;21.50;13.40;;;;;;;;;;5074799;28;20056;-78
2022/04/07 13:43:08;;;;;;;20.27;12.60;;;;;;;;;;5056762;28;20057;-78
2022/04/07 13:45:34;;;;;;;18.90;12.85;;;;;;;;;;5074532;28;20035;-77
2022/04/07 13:47:59;;;;;;;24.70;12.80;;;;;;;;;;5074673;28;20032;-77
2022/04/07 13:50:24;;;;;;;22.23;13.02;;;;;;;;;;5074394;28;20446;-77
2022/04/07 13:52:50;;;;;;;35.55;13.98;;;;;;;;;;5074408;28;20438;-78
2022/04/07 13:55:15;;;;;;;19.90;12.15;;;;;;;;;;5074308;28;20064;-77
2022/04/07 13:57:41;;;;;;;24.50;13.23;;;;;;;;;;5074580;28;20094;-78
2022/04/07 14:00:07;;;;;;;29.63;16.40;;;;;;;;;;5074487;28;20039;-78
2022/04/07 14:02:32;;;;;;;23.27;13.70;;;;;;;;;;5075096;28;20028;-77
2022/04/07 14:04:58;;;;;;;26.10;14.73;;;;;;;;;;5074255;28;20048;-77
2022/04/07 14:07:23;;;;;;;27.00;16.05;;;;;;;;;;5074192;28;20036;-77
2022/04/07 14:09:49;;;;;;;28.30;15.95;;;;;;;;;;5074126;28;20028;-77
2022/04/07 14:12:15;;;;;;;28.10;17.38;;;;;;;;;;5055687;28;20135;-78
2022/04/07 14:14:43;;;;;;;23.17;14.82;;;;;;;;;;5073902;28;20024;-78
2022/04/07 14:17:09;;;;;;;22.42;12.82;;;;;;;;;;5056453;28;20373;-78
2022/04/07 14:19:34;;;;;;;21.63;13.38;;;;;;;;;;5074071;28;20111;-78
2022/04/07 14:22:00;;;;;;;27.83;13.25;;;;;;;;;;5057547;28;20070;-77
2022/04/07 14:24:25;;;;;;;21.92;13.20;;;;;;;;;;5056607;28;20039;-77